sensor_id;sensor_type;location;lat;lon;timestamp;temperature;humidity
19803;DHT22;66074;50.764;6.090;2023-08-30T00:00:18;17.10;93.60
19803;DHT22;66074;50.764;6.090;2023-08-30T00:02:46;17.00;93.90
19803;DHT22;66074;50.764;6.090;2023-08-30T00:05:13;17.00;93.40
19803;DHT22;66074;50.764;6.090;2023-08-30T00:07:39;17.00;93.40
19803;DHT22;66074;50.764;6.090;2023-08-30T00:10:07;16.90;93.50
19803;DHT22;66074;50.764;6.090;2023-08-30T00:12:33;17.00;93.40
19803;DHT22;66074;50.764;6.090;2023-08-30T00:14:59;16.90;93.50
19803;DHT22;66074;50.764;6.090;2023-08-30T00:17:24;16.90;93.30
19803;DHT22;66074;50.764;6.090;2023-08-30T00:19:50;16.80;93.80
19803;DHT22;66074;50.764;6.090;2023-08-30T00:22:18;16.70;93.70
19803;DHT22;66074;50.764;6.090;2023-08-30T00:24:44;16.70;93.80
19803;DHT22;66074;50.764;6.090;2023-08-30T00:27:10;16.70;93.50
19803;DHT22;66074;50.764;6.090;2023-08-30T00:29:36;16.70;93.80
19803;DHT22;66074;50.764;6.090;2023-08-30T00:32:01;16.70;93.70
19803;DHT22;66074;50.764;6.090;2023-08-30T00:34:27;16.70;93.60
19803;DHT22;66074;50.764;6.090;2023-08-30T00:36:53;16.70;93.50
19803;DHT22;66074;50.764;6.090;2023-08-30T00:39:18;16.80;93.50
19803;DHT22;66074;50.764;6.090;2023-08-30T00:41:44;16.80;93.40
19803;DHT22;66074;50.764;6.090;2023-08-30T00:44:10;16.80;93.40
19803;DHT22;66074;50.764;6.090;2023-08-30T00:46:36;16.80;93.60
19803;DHT22;66074;50.764;6.090;2023-08-30T00:49:03;16.80;93.50
19803;DHT22;66074;50.764;6.090;2023-08-30T00:51:29;16.70;93.50
19803;DHT22;66074;50.764;6.090;2023-08-30T00:53:56;16.70;93.60
19803;DHT22;66074;50.764;6.090;2023-08-30T00:56:22;16.70;93.60
19803;DHT22;66074;50.764;6.090;2023-08-30T00:58:49;16.70;93.60
19803;DHT22;66074;50.764;6.090;2023-08-30T01:01:16;16.70;93.50
19803;DHT22;66074;50.764;6.090;2023-08-30T01:03:42;16.70;93.60
19803;DHT22;66074;50.764;6.090;2023-08-30T01:06:07;16.70;93.60
19803;DHT22;66074;50.764;6.090;2023-08-30T01:08:34;16.70;93.60
19803;DHT22;66074;50.764;6.090;2023-08-30T01:11:30;16.70;93.70
19803;DHT22;66074;50.764;6.090;2023-08-30T01:14:08;16.70;93.60
19803;DHT22;66074;50.764;6.090;2023-08-30T01:16:35;16.70;93.60
19803;DHT22;66074;50.764;6.090;2023-08-30T01:19:13;16.70;93.80
19803;DHT22;66074;50.764;6.090;2023-08-30T01:21:52;16.70;93.60
19803;DHT22;66074;50.764;6.090;2023-08-30T01:24:28;16.70;93.70
19803;DHT22;66074;50.764;6.090;2023-08-30T01:27:13;16.70;93.70
19803;DHT22;66074;50.764;6.090;2023-08-30T01:29:42;16.70;93.70
19803;DHT22;66074;50.764;6.090;2023-08-30T01:32:09;16.60;93.60
19803;DHT22;66074;50.764;6.090;2023-08-30T01:34:37;16.70;93.70
19803;DHT22;66074;50.764;6.090;2023-08-30T01:37:06;16.60;93.70
19803;DHT22;66074;50.764;6.090;2023-08-30T01:39:32;16.60;93.80
19803;DHT22;66074;50.764;6.090;2023-08-30T01:41:59;16.60;93.90
19803;DHT22;66074;50.764;6.090;2023-08-30T01:44:29;16.60;93.90
19803;DHT22;66074;50.764;6.090;2023-08-30T01:46:56;16.60;93.80
19803;DHT22;66074;50.764;6.090;2023-08-30T01:49:24;16.50;93.60
19803;DHT22;66074;50.764;6.090;2023-08-30T01:51:51;16.60;93.70
19803;DHT22;66074;50.764;6.090;2023-08-30T01:54:18;16.50;93.70
19803;DHT22;66074;50.764;6.090;2023-08-30T01:56:46;16.50;93.70
19803;DHT22;66074;50.764;6.090;2023-08-30T01:59:12;16.50;93.60
19803;DHT22;66074;50.764;6.090;2023-08-30T02:01:38;16.50;93.60
19803;DHT22;66074;50.764;6.090;2023-08-30T02:04:03;16.50;93.70
19803;DHT22;66074;50.764;6.090;2023-08-30T02:06:45;16.50;93.70
19803;DHT22;66074;50.764;6.090;2023-08-30T02:09:28;16.50;93.70
19803;DHT22;66074;50.764;6.090;2023-08-30T02:11:55;16.50;93.70
19803;DHT22;66074;50.764;6.090;2023-08-30T02:14:26;16.50;93.70
19803;DHT22;66074;50.764;6.090;2023-08-30T02:16:52;16.40;93.60
19803;DHT22;66074;50.764;6.090;2023-08-30T02:19:20;16.50;93.70
19803;DHT22;66074;50.764;6.090;2023-08-30T02:21:46;16.40;93.60
19803;DHT22;66074;50.764;6.090;2023-08-30T02:24:13;16.40;93.60
19803;DHT22;66074;50.764;6.090;2023-08-30T02:26:39;16.40;93.60
19803;DHT22;66074;50.764;6.090;2023-08-30T02:29:04;16.40;93.70
19803;DHT22;66074;50.764;6.090;2023-08-30T02:31:30;16.30;93.60
19803;DHT22;66074;50.764;6.090;2023-08-30T02:33:56;16.30;93.70
19803;DHT22;66074;50.764;6.090;2023-08-30T02:36:21;16.30;93.70
19803;DHT22;66074;50.764;6.090;2023-08-30T02:38:47;16.30;93.60
19803;DHT22;66074;50.764;6.090;2023-08-30T02:41:12;16.40;93.60
19803;DHT22;66074;50.764;6.090;2023-08-30T02:43:38;16.40;93.60
19803;DHT22;66074;50.764;6.090;2023-08-30T02:46:04;16.40;93.60
19803;DHT22;66074;50.764;6.090;2023-08-30T02:48:31;16.40;93.50
19803;DHT22;66074;50.764;6.090;2023-08-30T02:50:57;16.50;93.50
19803;DHT22;66074;50.764;6.090;2023-08-30T02:53:23;16.50;93.50
19803;DHT22;66074;50.764;6.090;2023-08-30T02:55:48;16.50;93.40
19803;DHT22;66074;50.764;6.090;2023-08-30T02:58:14;16.50;93.40
19803;DHT22;66074;50.764;6.090;2023-08-30T03:00:40;16.60;93.40
19803;DHT22;66074;50.764;6.090;2023-08-30T03:03:06;16.60;93.40
19803;DHT22;66074;50.764;6.090;2023-08-30T03:05:32;16.60;93.30
19803;DHT22;66074;50.764;6.090;2023-08-30T03:07:57;16.60;93.30
19803;DHT22;66074;50.764;6.090;2023-08-30T03:10:24;16.60;93.30
19803;DHT22;66074;50.764;6.090;2023-08-30T03:12:50;16.60;93.30
19803;DHT22;66074;50.764;6.090;2023-08-30T03:15:15;16.60;93.20
19803;DHT22;66074;50.764;6.090;2023-08-30T03:17:41;16.70;93.30
19803;DHT22;66074;50.764;6.090;2023-08-30T03:20:07;16.70;93.20
19803;DHT22;66074;50.764;6.090;2023-08-30T03:22:33;16.70;93.20
19803;DHT22;66074;50.764;6.090;2023-08-30T03:24:58;16.70;93.20
19803;DHT22;66074;50.764;6.090;2023-08-30T03:27:24;16.70;93.20
19803;DHT22;66074;50.764;6.090;2023-08-30T03:29:50;16.80;93.30
19803;DHT22;66074;50.764;6.090;2023-08-30T03:32:20;16.80;93.30
19803;DHT22;66074;50.764;6.090;2023-08-30T03:34:46;16.80;93.10
19803;DHT22;66074;50.764;6.090;2023-08-30T03:37:16;16.80;93.20
19803;DHT22;66074;50.764;6.090;2023-08-30T03:39:42;16.80;93.20
19803;DHT22;66074;50.764;6.090;2023-08-30T03:42:08;16.80;93.20
19803;DHT22;66074;50.764;6.090;2023-08-30T03:44:34;16.80;93.10
19803;DHT22;66074;50.764;6.090;2023-08-30T03:46:59;16.80;93.00
19803;DHT22;66074;50.764;6.090;2023-08-30T03:49:25;16.80;93.00
19803;DHT22;66074;50.764;6.090;2023-08-30T03:51:51;16.80;92.80
19803;DHT22;66074;50.764;6.090;2023-08-30T03:54:16;16.80;92.90
19803;DHT22;66074;50.764;6.090;2023-08-30T03:56:43;16.80;92.90
19803;DHT22;66074;50.764;6.090;2023-08-30T03:59:09;16.90;92.90
19803;DHT22;66074;50.764;6.090;2023-08-30T04:01:34;16.80;92.70
19803;DHT22;66074;50.764;6.090;2023-08-30T04:04:00;16.80;92.80
19803;DHT22;66074;50.764;6.090;2023-08-30T04:06:25;16.80;92.80
19803;DHT22;66074;50.764;6.090;2023-08-30T04:08:51;16.90;92.80
19803;DHT22;66074;50.764;6.090;2023-08-30T04:11:16;16.90;92.80
19803;DHT22;66074;50.764;6.090;2023-08-30T04:13:42;16.80;92.80
19803;DHT22;66074;50.764;6.090;2023-08-30T04:16:08;16.90;92.80
19803;DHT22;66074;50.764;6.090;2023-08-30T04:18:33;16.90;92.80
19803;DHT22;66074;50.764;6.090;2023-08-30T04:20:59;17.00;92.80
19803;DHT22;66074;50.764;6.090;2023-08-30T04:23:27;16.90;92.80
19803;DHT22;66074;50.764;6.090;2023-08-30T04:25:53;16.90;92.70
19803;DHT22;66074;50.764;6.090;2023-08-30T04:28:19;16.90;92.80
19803;DHT22;66074;50.764;6.090;2023-08-30T04:30:44;16.90;92.80
19803;DHT22;66074;50.764;6.090;2023-08-30T04:33:10;16.90;92.80
19803;DHT22;66074;50.764;6.090;2023-08-30T04:35:35;16.90;92.80
19803;DHT22;66074;50.764;6.090;2023-08-30T04:38:02;16.90;92.80
19803;DHT22;66074;50.764;6.090;2023-08-30T04:40:28;16.90;92.80
19803;DHT22;66074;50.764;6.090;2023-08-30T04:42:56;16.90;92.80
19803;DHT22;66074;50.764;6.090;2023-08-30T04:45:21;16.90;92.80
19803;DHT22;66074;50.764;6.090;2023-08-30T04:47:47;16.80;92.70
19803;DHT22;66074;50.764;6.090;2023-08-30T04:50:13;16.80;92.70
19803;DHT22;66074;50.764;6.090;2023-08-30T04:52:39;16.80;92.70
19803;DHT22;66074;50.764;6.090;2023-08-30T04:55:05;16.80;92.80
19803;DHT22;66074;50.764;6.090;2023-08-30T04:57:31;16.80;92.70
19803;DHT22;66074;50.764;6.090;2023-08-30T04:59:57;16.80;92.80
19803;DHT22;66074;50.764;6.090;2023-08-30T05:02:23;16.80;92.80
19803;DHT22;66074;50.764;6.090;2023-08-30T05:04:49;16.80;92.80
19803;DHT22;66074;50.764;6.090;2023-08-30T05:07:15;16.80;92.90
19803;DHT22;66074;50.764;6.090;2023-08-30T05:09:40;16.80;92.90
19803;DHT22;66074;50.764;6.090;2023-08-30T05:12:07;16.80;92.90
19803;DHT22;66074;50.764;6.090;2023-08-30T05:14:32;16.80;92.90
19803;DHT22;66074;50.764;6.090;2023-08-30T05:16:58;16.80;92.90
19803;DHT22;66074;50.764;6.090;2023-08-30T05:19:23;16.80;92.90
19803;DHT22;66074;50.764;6.090;2023-08-30T05:21:49;16.80;92.90
19803;DHT22;66074;50.764;6.090;2023-08-30T05:24:17;16.80;92.90
19803;DHT22;66074;50.764;6.090;2023-08-30T05:26:42;16.80;92.90
19803;DHT22;66074;50.764;6.090;2023-08-30T05:29:08;16.90;93.00
19803;DHT22;66074;50.764;6.090;2023-08-30T05:31:33;16.90;92.90
19803;DHT22;66074;50.764;6.090;2023-08-30T05:33:59;16.80;92.90
19803;DHT22;66074;50.764;6.090;2023-08-30T05:36:25;16.80;92.90
19803;DHT22;66074;50.764;6.090;2023-08-30T05:38:50;16.80;92.90
19803;DHT22;66074;50.764;6.090;2023-08-30T05:41:16;16.90;92.90
19803;DHT22;66074;50.764;6.090;2023-08-30T05:43:43;16.90;92.90
19803;DHT22;66074;50.764;6.090;2023-08-30T05:46:09;16.90;93.20
19803;DHT22;66074;50.764;6.090;2023-08-30T05:48:40;16.90;92.90
19803;DHT22;66074;50.764;6.090;2023-08-30T05:51:05;17.00;92.90
19803;DHT22;66074;50.764;6.090;2023-08-30T05:53:31;17.00;92.90
19803;DHT22;66074;50.764;6.090;2023-08-30T05:55:56;17.10;92.90
19803;DHT22;66074;50.764;6.090;2023-08-30T05:58:22;17.10;92.80
19803;DHT22;66074;50.764;6.090;2023-08-30T06:00:47;17.10;92.80
19803;DHT22;66074;50.764;6.090;2023-08-30T06:03:13;17.10;92.80
19803;DHT22;66074;50.764;6.090;2023-08-30T06:05:39;17.10;92.80
19803;DHT22;66074;50.764;6.090;2023-08-30T06:08:04;17.10;92.70
19803;DHT22;66074;50.764;6.090;2023-08-30T06:10:30;17.10;92.80
19803;DHT22;66074;50.764;6.090;2023-08-30T06:12:56;17.00;92.70
19803;DHT22;66074;50.764;6.090;2023-08-30T06:15:21;17.00;92.70
19803;DHT22;66074;50.764;6.090;2023-08-30T06:17:47;17.00;92.70
19803;DHT22;66074;50.764;6.090;2023-08-30T06:20:15;17.00;92.60
19803;DHT22;66074;50.764;6.090;2023-08-30T06:22:40;17.00;92.60
19803;DHT22;66074;50.764;6.090;2023-08-30T06:25:08;17.00;92.60
19803;DHT22;66074;50.764;6.090;2023-08-30T06:27:36;17.10;92.60
19803;DHT22;66074;50.764;6.090;2023-08-30T06:30:01;17.10;92.50
19803;DHT22;66074;50.764;6.090;2023-08-30T06:32:29;17.10;92.50
19803;DHT22;66074;50.764;6.090;2023-08-30T06:34:54;17.10;92.40
19803;DHT22;66074;50.764;6.090;2023-08-30T06:37:20;17.10;92.50
19803;DHT22;66074;50.764;6.090;2023-08-30T06:39:45;17.10;92.40
19803;DHT22;66074;50.764;6.090;2023-08-30T06:42:11;17.10;92.40
19803;DHT22;66074;50.764;6.090;2023-08-30T06:44:37;17.00;92.30
19803;DHT22;66074;50.764;6.090;2023-08-30T06:47:02;17.00;92.40
19803;DHT22;66074;50.764;6.090;2023-08-30T06:49:29;17.10;92.30
19803;DHT22;66074;50.764;6.090;2023-08-30T06:51:57;17.00;92.20
19803;DHT22;66074;50.764;6.090;2023-08-30T06:54:22;17.10;92.30
19803;DHT22;66074;50.764;6.090;2023-08-30T06:57:00;17.10;92.30
19803;DHT22;66074;50.764;6.090;2023-08-30T06:59:27;17.10;92.30
19803;DHT22;66074;50.764;6.090;2023-08-30T07:01:52;17.20;92.20
19803;DHT22;66074;50.764;6.090;2023-08-30T07:04:18;17.20;92.10
19803;DHT22;66074;50.764;6.090;2023-08-30T07:06:44;17.10;92.10
19803;DHT22;66074;50.764;6.090;2023-08-30T07:09:10;17.20;92.10
19803;DHT22;66074;50.764;6.090;2023-08-30T07:11:37;17.20;92.20
19803;DHT22;66074;50.764;6.090;2023-08-30T07:14:03;17.20;92.10
19803;DHT22;66074;50.764;6.090;2023-08-30T07:16:29;17.30;92.10
19803;DHT22;66074;50.764;6.090;2023-08-30T07:18:57;17.40;92.10
19803;DHT22;66074;50.764;6.090;2023-08-30T07:21:23;17.40;92.00
19803;DHT22;66074;50.764;6.090;2023-08-30T07:23:49;17.50;92.20
19803;DHT22;66074;50.764;6.090;2023-08-30T07:26:14;17.50;92.10
19803;DHT22;66074;50.764;6.090;2023-08-30T07:28:40;17.50;92.10
19803;DHT22;66074;50.764;6.090;2023-08-30T07:31:06;17.60;92.10
19803;DHT22;66074;50.764;6.090;2023-08-30T07:33:32;17.70;92.20
19803;DHT22;66074;50.764;6.090;2023-08-30T07:35:58;17.70;92.20
19803;DHT22;66074;50.764;6.090;2023-08-30T07:38:23;17.70;92.10
19803;DHT22;66074;50.764;6.090;2023-08-30T07:40:49;17.70;92.00
19803;DHT22;66074;50.764;6.090;2023-08-30T07:43:15;17.80;92.20
19803;DHT22;66074;50.764;6.090;2023-08-30T07:45:40;17.80;92.20
19803;DHT22;66074;50.764;6.090;2023-08-30T07:48:06;17.80;92.30
19803;DHT22;66074;50.764;6.090;2023-08-30T07:50:31;17.90;92.40
19803;DHT22;66074;50.764;6.090;2023-08-30T07:52:57;17.90;92.40
19803;DHT22;66074;50.764;6.090;2023-08-30T07:55:23;18.00;92.40
19803;DHT22;66074;50.764;6.090;2023-08-30T07:57:48;18.00;92.50
19803;DHT22;66074;50.764;6.090;2023-08-30T08:00:14;18.10;92.50
19803;DHT22;66074;50.764;6.090;2023-08-30T08:02:40;18.10;92.50
19803;DHT22;66074;50.764;6.090;2023-08-30T08:05:06;18.10;92.50
19803;DHT22;66074;50.764;6.090;2023-08-30T08:07:32;18.10;92.70
19803;DHT22;66074;50.764;6.090;2023-08-30T08:09:58;18.10;92.60
19803;DHT22;66074;50.764;6.090;2023-08-30T08:12:24;18.10;92.50
19803;DHT22;66074;50.764;6.090;2023-08-30T08:14:49;18.10;92.50
19803;DHT22;66074;50.764;6.090;2023-08-30T08:17:15;18.00;92.80
19803;DHT22;66074;50.764;6.090;2023-08-30T08:19:40;18.00;92.60
19803;DHT22;66074;50.764;6.090;2023-08-30T08:22:08;18.00;92.60
19803;DHT22;66074;50.764;6.090;2023-08-30T08:24:34;18.00;92.90
19803;DHT22;66074;50.764;6.090;2023-08-30T08:26:59;18.00;92.60
19803;DHT22;66074;50.764;6.090;2023-08-30T08:29:27;18.00;92.60
19803;DHT22;66074;50.764;6.090;2023-08-30T08:31:53;18.00;92.60
19803;DHT22;66074;50.764;6.090;2023-08-30T08:34:19;18.00;92.60
19803;DHT22;66074;50.764;6.090;2023-08-30T08:36:45;18.10;92.70
19803;DHT22;66074;50.764;6.090;2023-08-30T08:39:10;18.10;92.80
19803;DHT22;66074;50.764;6.090;2023-08-30T08:41:38;18.20;92.70
19803;DHT22;66074;50.764;6.090;2023-08-30T08:44:05;18.30;92.70
19803;DHT22;66074;50.764;6.090;2023-08-30T08:46:32;18.30;92.60
19803;DHT22;66074;50.764;6.090;2023-08-30T08:49:02;18.30;92.40
19803;DHT22;66074;50.764;6.090;2023-08-30T08:51:31;18.30;92.40
19803;DHT22;66074;50.764;6.090;2023-08-30T08:54:03;18.30;92.80
19803;DHT22;66074;50.764;6.090;2023-08-30T08:56:32;18.30;92.50
19803;DHT22;66074;50.764;6.090;2023-08-30T08:59:01;18.40;92.60
19803;DHT22;66074;50.764;6.090;2023-08-30T09:01:27;18.30;92.50
19803;DHT22;66074;50.764;6.090;2023-08-30T09:03:53;18.30;92.40
19803;DHT22;66074;50.764;6.090;2023-08-30T09:06:19;18.30;92.40
19803;DHT22;66074;50.764;6.090;2023-08-30T09:08:45;18.20;92.40
19803;DHT22;66074;50.764;6.090;2023-08-30T09:11:11;18.30;92.40
19803;DHT22;66074;50.764;6.090;2023-08-30T09:13:36;18.40;92.50
19803;DHT22;66074;50.764;6.090;2023-08-30T09:16:02;18.40;92.40
19803;DHT22;66074;50.764;6.090;2023-08-30T09:18:28;18.60;92.40
19803;DHT22;66074;50.764;6.090;2023-08-30T09:21:07;18.60;92.40
19803;DHT22;66074;50.764;6.090;2023-08-30T09:23:33;18.80;92.40
19803;DHT22;66074;50.764;6.090;2023-08-30T09:25:59;18.90;92.20
19803;DHT22;66074;50.764;6.090;2023-08-30T09:28:26;18.90;91.90
19803;DHT22;66074;50.764;6.090;2023-08-30T09:30:52;18.90;91.90
19803;DHT22;66074;50.764;6.090;2023-08-30T09:33:22;19.00;91.70
19803;DHT22;66074;50.764;6.090;2023-08-30T09:35:47;19.00;91.70
19803;DHT22;66074;50.764;6.090;2023-08-30T09:38:17;19.10;91.60
19803;DHT22;66074;50.764;6.090;2023-08-30T09:40:43;19.20;91.70
19803;DHT22;66074;50.764;6.090;2023-08-30T09:43:10;19.20;91.80
19803;DHT22;66074;50.764;6.090;2023-08-30T09:45:36;19.10;91.70
19803;DHT22;66074;50.764;6.090;2023-08-30T09:48:02;19.10;91.70
19803;DHT22;66074;50.764;6.090;2023-08-30T09:50:29;19.10;91.70
19803;DHT22;66074;50.764;6.090;2023-08-30T09:52:58;19.00;91.70
19803;DHT22;66074;50.764;6.090;2023-08-30T09:55:25;18.90;92.40
19803;DHT22;66074;50.764;6.090;2023-08-30T09:57:51;18.70;93.10
19803;DHT22;66074;50.764;6.090;2023-08-30T10:00:17;18.50;93.10
19803;DHT22;66074;50.764;6.090;2023-08-30T10:02:43;18.40;93.40
19803;DHT22;66074;50.764;6.090;2023-08-30T10:05:12;18.40;93.30
19803;DHT22;66074;50.764;6.090;2023-08-30T10:07:39;18.40;93.80
19803;DHT22;66074;50.764;6.090;2023-08-30T10:10:05;18.40;94.40
19803;DHT22;66074;50.764;6.090;2023-08-30T10:12:32;18.30;94.20
19803;DHT22;66074;50.764;6.090;2023-08-30T10:14:58;18.30;94.60
19803;DHT22;66074;50.764;6.090;2023-08-30T10:17:27;18.30;94.40
19803;DHT22;66074;50.764;6.090;2023-08-30T10:19:55;18.30;94.50
19803;DHT22;66074;50.764;6.090;2023-08-30T10:22:22;18.40;94.40
19803;DHT22;66074;50.764;6.090;2023-08-30T10:24:52;18.40;94.90
19803;DHT22;66074;50.764;6.090;2023-08-30T10:27:20;18.40;94.80
19803;DHT22;66074;50.764;6.090;2023-08-30T10:29:47;18.30;94.80
19803;DHT22;66074;50.764;6.090;2023-08-30T10:32:18;18.30;94.70
19803;DHT22;66074;50.764;6.090;2023-08-30T10:34:48;18.30;94.90
19803;DHT22;66074;50.764;6.090;2023-08-30T10:37:14;18.30;95.30
19803;DHT22;66074;50.764;6.090;2023-08-30T10:39:42;18.40;95.10
19803;DHT22;66074;50.764;6.090;2023-08-30T10:42:12;18.40;95.10
19803;DHT22;66074;50.764;6.090;2023-08-30T10:44:52;18.40;95.40
19803;DHT22;66074;50.764;6.090;2023-08-30T10:47:27;18.30;95.20
19803;DHT22;66074;50.764;6.090;2023-08-30T10:50:00;18.30;95.40
19803;DHT22;66074;50.764;6.090;2023-08-30T10:52:28;18.20;95.20
19803;DHT22;66074;50.764;6.090;2023-08-30T10:55:08;18.20;95.40
19803;DHT22;66074;50.764;6.090;2023-08-30T10:57:34;18.10;95.40
19803;DHT22;66074;50.764;6.090;2023-08-30T11:02:44;18.00;95.70
19803;DHT22;66074;50.764;6.090;2023-08-30T11:05:11;18.00;95.60
19803;DHT22;66074;50.764;6.090;2023-08-30T11:07:36;18.00;95.80
19803;DHT22;66074;50.764;6.090;2023-08-30T11:10:04;18.00;96.10
19803;DHT22;66074;50.764;6.090;2023-08-30T11:12:31;18.10;95.90
19803;DHT22;66074;50.764;6.090;2023-08-30T11:14:57;18.00;96.00
19803;DHT22;66074;50.764;6.090;2023-08-30T11:17:23;17.90;96.00
19803;DHT22;66074;50.764;6.090;2023-08-30T11:19:57;17.90;96.50
19803;DHT22;66074;50.764;6.090;2023-08-30T11:22:24;17.80;96.20
19803;DHT22;66074;50.764;6.090;2023-08-30T11:24:50;17.90;96.60
19803;DHT22;66074;50.764;6.090;2023-08-30T11:27:17;17.90;96.70
19803;DHT22;66074;50.764;6.090;2023-08-30T11:29:43;17.90;96.50
19803;DHT22;66074;50.764;6.090;2023-08-30T11:32:09;17.90;96.60
19803;DHT22;66074;50.764;6.090;2023-08-30T11:34:34;17.90;96.90
19803;DHT22;66074;50.764;6.090;2023-08-30T11:37:00;17.90;97.10
19803;DHT22;66074;50.764;6.090;2023-08-30T11:39:28;17.80;96.80
19803;DHT22;66074;50.764;6.090;2023-08-30T11:41:54;17.80;96.90
19803;DHT22;66074;50.764;6.090;2023-08-30T11:44:23;17.90;97.40
19803;DHT22;66074;50.764;6.090;2023-08-30T11:46:49;17.90;97.20
19803;DHT22;66074;50.764;6.090;2023-08-30T11:49:18;17.80;96.90
19803;DHT22;66074;50.764;6.090;2023-08-30T11:51:43;17.80;97.40
19803;DHT22;66074;50.764;6.090;2023-08-30T11:54:09;17.70;97.30
19803;DHT22;66074;50.764;6.090;2023-08-30T11:56:36;17.70;97.10
19803;DHT22;66074;50.764;6.090;2023-08-30T11:59:02;17.70;97.30
19803;DHT22;66074;50.764;6.090;2023-08-30T12:01:29;17.70;97.70
19803;DHT22;66074;50.764;6.090;2023-08-30T12:03:55;17.70;97.70
19803;DHT22;66074;50.764;6.090;2023-08-30T12:06:23;17.70;97.60
19803;DHT22;66074;50.764;6.090;2023-08-30T12:08:48;17.80;97.60
19803;DHT22;66074;50.764;6.090;2023-08-30T12:11:22;17.80;97.70
19803;DHT22;66074;50.764;6.090;2023-08-30T12:13:48;17.90;97.70
19803;DHT22;66074;50.764;6.090;2023-08-30T12:16:17;17.90;97.60
19803;DHT22;66074;50.764;6.090;2023-08-30T12:18:44;17.90;97.70
19803;DHT22;66074;50.764;6.090;2023-08-30T12:21:09;17.90;97.50
19803;DHT22;66074;50.764;6.090;2023-08-30T12:23:35;17.80;97.80
19803;DHT22;66074;50.764;6.090;2023-08-30T12:26:07;17.80;98.00
19803;DHT22;66074;50.764;6.090;2023-08-30T12:28:35;17.70;98.10
19803;DHT22;66074;50.764;6.090;2023-08-30T12:31:01;17.70;98.10
19803;DHT22;66074;50.764;6.090;2023-08-30T12:33:27;17.60;97.70
19803;DHT22;66074;50.764;6.090;2023-08-30T12:35:56;17.60;97.60
19803;DHT22;66074;50.764;6.090;2023-08-30T12:38:23;17.60;98.10
19803;DHT22;66074;50.764;6.090;2023-08-30T12:40:51;17.70;98.40
19803;DHT22;66074;50.764;6.090;2023-08-30T12:43:18;17.80;98.70
19803;DHT22;66074;50.764;6.090;2023-08-30T12:45:45;17.90;98.70
19803;DHT22;66074;50.764;6.090;2023-08-30T12:48:13;18.00;98.60
19803;DHT22;66074;50.764;6.090;2023-08-30T12:50:47;18.00;98.80
19803;DHT22;66074;50.764;6.090;2023-08-30T12:53:14;18.00;98.70
19803;DHT22;66074;50.764;6.090;2023-08-30T12:55:42;18.00;99.10
19803;DHT22;66074;50.764;6.090;2023-08-30T12:58:08;18.00;98.80
19803;DHT22;66074;50.764;6.090;2023-08-30T13:00:35;18.10;98.40
19803;DHT22;66074;50.764;6.090;2023-08-30T13:03:01;18.00;98.50
19803;DHT22;66074;50.764;6.090;2023-08-30T13:05:27;17.90;98.20
19803;DHT22;66074;50.764;6.090;2023-08-30T13:07:53;17.80;97.90
19803;DHT22;66074;50.764;6.090;2023-08-30T13:10:19;17.70;98.00
19803;DHT22;66074;50.764;6.090;2023-08-30T13:12:45;17.60;98.30
19803;DHT22;66074;50.764;6.090;2023-08-30T13:15:11;17.60;98.10
19803;DHT22;66074;50.764;6.090;2023-08-30T13:17:37;17.60;98.00
19803;DHT22;66074;50.764;6.090;2023-08-30T13:20:03;17.60;98.00
19803;DHT22;66074;50.764;6.090;2023-08-30T13:22:30;17.50;98.10
19803;DHT22;66074;50.764;6.090;2023-08-30T13:24:56;17.40;98.20
19803;DHT22;66074;50.764;6.090;2023-08-30T13:27:21;17.40;98.00
19803;DHT22;66074;50.764;6.090;2023-08-30T13:29:48;17.50;97.80
19803;DHT22;66074;50.764;6.090;2023-08-30T13:32:14;17.40;97.70
19803;DHT22;66074;50.764;6.090;2023-08-30T13:34:39;17.40;97.60
19803;DHT22;66074;50.764;6.090;2023-08-30T13:37:05;17.40;97.60
19803;DHT22;66074;50.764;6.090;2023-08-30T13:39:31;17.40;97.50
19803;DHT22;66074;50.764;6.090;2023-08-30T13:41:56;17.20;97.30
19803;DHT22;66074;50.764;6.090;2023-08-30T13:44:22;17.30;97.50
19803;DHT22;66074;50.764;6.090;2023-08-30T13:46:49;17.30;97.30
19803;DHT22;66074;50.764;6.090;2023-08-30T13:49:15;17.20;97.40
19803;DHT22;66074;50.764;6.090;2023-08-30T13:51:41;17.20;97.40
19803;DHT22;66074;50.764;6.090;2023-08-30T13:54:07;17.30;97.30
19803;DHT22;66074;50.764;6.090;2023-08-30T13:56:33;17.30;97.30
19803;DHT22;66074;50.764;6.090;2023-08-30T13:58:59;17.30;97.10
19803;DHT22;66074;50.764;6.090;2023-08-30T14:01:24;17.30;97.30
19803;DHT22;66074;50.764;6.090;2023-08-30T14:03:50;17.50;97.70
19803;DHT22;66074;50.764;6.090;2023-08-30T14:06:15;18.20;98.70
19803;DHT22;66074;50.764;6.090;2023-08-30T14:08:42;19.30;98.90
19803;DHT22;66074;50.764;6.090;2023-08-30T14:11:08;20.30;97.30
19803;DHT22;66074;50.764;6.090;2023-08-30T14:13:34;20.80;98.00
19803;DHT22;66074;50.764;6.090;2023-08-30T14:16:02;20.90;97.60
19803;DHT22;66074;50.764;6.090;2023-08-30T14:18:29;21.00;98.10
19803;DHT22;66074;50.764;6.090;2023-08-30T14:20:58;20.90;97.90
19803;DHT22;66074;50.764;6.090;2023-08-30T14:23:25;20.90;97.70
19803;DHT22;66074;50.764;6.090;2023-08-30T14:26:03;21.00;97.30
19803;DHT22;66074;50.764;6.090;2023-08-30T14:28:34;21.10;97.30
19803;DHT22;66074;50.764;6.090;2023-08-30T14:31:00;21.20;97.10
19803;DHT22;66074;50.764;6.090;2023-08-30T14:33:26;21.30;96.80
19803;DHT22;66074;50.764;6.090;2023-08-30T14:35:52;21.30;95.40
19803;DHT22;66074;50.764;6.090;2023-08-30T14:38:17;21.30;96.00
19803;DHT22;66074;50.764;6.090;2023-08-30T14:40:43;21.10;96.10
19803;DHT22;66074;50.764;6.090;2023-08-30T14:43:09;20.90;95.50
19803;DHT22;66074;50.764;6.090;2023-08-30T14:45:34;20.70;95.40
19803;DHT22;66074;50.764;6.090;2023-08-30T14:48:00;20.50;94.70
19803;DHT22;66074;50.764;6.090;2023-08-30T14:50:25;20.20;94.60
19803;DHT22;66074;50.764;6.090;2023-08-30T14:52:51;20.20;95.10
19803;DHT22;66074;50.764;6.090;2023-08-30T14:55:20;20.00;95.10
19803;DHT22;66074;50.764;6.090;2023-08-30T14:57:46;19.90;95.00
19803;DHT22;66074;50.764;6.090;2023-08-30T15:00:12;19.90;95.10
19803;DHT22;66074;50.764;6.090;2023-08-30T15:02:37;20.00;95.40
19803;DHT22;66074;50.764;6.090;2023-08-30T15:05:03;20.00;95.10
19803;DHT22;66074;50.764;6.090;2023-08-30T15:07:29;20.10;95.30
19803;DHT22;66074;50.764;6.090;2023-08-30T15:09:54;20.30;95.40
19803;DHT22;66074;50.764;6.090;2023-08-30T15:14:58;20.50;94.80
19803;DHT22;66074;50.764;6.090;2023-08-30T15:17:23;20.40;94.90
19803;DHT22;66074;50.764;6.090;2023-08-30T15:19:49;20.40;94.90
19803;DHT22;66074;50.764;6.090;2023-08-30T15:22:15;20.30;95.10
19803;DHT22;66074;50.764;6.090;2023-08-30T15:24:40;20.30;94.90
19803;DHT22;66074;50.764;6.090;2023-08-30T15:27:06;20.20;94.90
19803;DHT22;66074;50.764;6.090;2023-08-30T15:29:33;20.10;94.80
19803;DHT22;66074;50.764;6.090;2023-08-30T15:31:59;20.00;94.80